createdAt,value
2022-10-05T00:01:11.073Z,95.00
2022-10-05T00:03:38.996Z,94.80
2022-10-05T00:06:05.850Z,95.00
2022-10-05T00:08:35.420Z,94.80
2022-10-05T00:11:02.248Z,94.70
2022-10-05T00:13:29.971Z,94.70
2022-10-05T00:16:05.934Z,94.90
2022-10-05T00:18:32.695Z,94.90
2022-10-05T00:20:59.886Z,94.70
2022-10-05T00:23:30.195Z,94.80
2022-10-05T00:26:01.565Z,94.80
2022-10-05T00:28:30.370Z,94.70
2022-10-05T00:30:58.324Z,94.70
2022-10-05T00:33:25.309Z,94.80
2022-10-05T00:35:52.020Z,94.90
2022-10-05T00:38:18.746Z,94.80
2022-10-05T00:41:02.607Z,94.90
2022-10-05T00:43:35.874Z,94.90
2022-10-05T00:46:28.955Z,94.90
2022-10-05T00:48:58.421Z,94.90
2022-10-05T00:51:26.678Z,94.90
2022-10-05T00:53:57.753Z,94.80
2022-10-05T00:56:48.107Z,94.80
2022-10-05T00:59:18.109Z,94.90
2022-10-05T01:01:57.770Z,94.90
2022-10-05T01:04:30.412Z,94.70
2022-10-05T01:07:12.413Z,94.90
2022-10-05T01:09:44.639Z,94.80
2022-10-05T01:12:20.922Z,94.90
2022-10-05T01:14:47.619Z,94.80
2022-10-05T01:17:22.634Z,94.90
2022-10-05T01:19:49.378Z,94.80
2022-10-05T01:22:16.018Z,94.80
2022-10-05T01:24:48.800Z,94.70
2022-10-05T01:27:18.598Z,94.90
2022-10-05T01:29:54.849Z,94.90
2022-10-05T01:32:43.016Z,94.60
2022-10-05T01:35:28.245Z,94.60
2022-10-05T01:38:10.282Z,94.60
2022-10-05T01:40:36.980Z,94.70
2022-10-05T01:43:09.856Z,94.60
2022-10-05T01:45:55.412Z,94.70
2022-10-05T01:48:22.123Z,94.80
2022-10-05T01:51:07.384Z,94.60
2022-10-05T01:53:46.083Z,94.80
2022-10-05T01:56:21.232Z,94.60
2022-10-05T01:59:04.481Z,94.70
2022-10-05T02:01:31.213Z,94.80
2022-10-05T02:04:10.702Z,94.70
2022-10-05T02:06:48.722Z,94.80
2022-10-05T02:09:29.693Z,94.70
2022-10-05T02:12:11.828Z,94.60
2022-10-05T02:14:41.515Z,94.70
2022-10-05T02:17:13.939Z,94.70
2022-10-05T02:19:50.442Z,94.50
2022-10-05T02:22:23.089Z,94.70
2022-10-05T02:25:00.881Z,94.70
2022-10-05T02:27:31.679Z,94.70
2022-10-05T02:30:06.220Z,94.60
2022-10-05T02:32:38.612Z,94.70
2022-10-05T02:35:11.870Z,94.80
2022-10-05T02:37:41.358Z,94.70
2022-10-05T02:40:11.065Z,94.70
2022-10-05T02:42:56.296Z,94.70
2022-10-05T02:45:22.988Z,94.60
2022-10-05T02:47:55.685Z,94.60
2022-10-05T02:50:27.219Z,94.70
2022-10-05T02:53:16.983Z,94.50
2022-10-05T02:55:54.032Z,94.60
2022-10-05T02:58:25.095Z,94.70
2022-10-05T03:01:14.857Z,94.60
2022-10-05T03:03:57.299Z,94.80
2022-10-05T03:06:27.782Z,94.80
2022-10-05T03:08:54.444Z,94.70
2022-10-05T03:11:36.335Z,94.80
2022-10-05T03:14:03.007Z,94.70
2022-10-05T03:16:35.591Z,94.70
2022-10-05T03:19:17.519Z,94.70
2022-10-05T03:21:57.741Z,94.50
2022-10-05T03:24:34.626Z,94.70
2022-10-05T03:27:01.300Z,94.60
2022-10-05T03:29:34.892Z,94.70
2022-10-05T03:32:24.814Z,94.70
2022-10-05T03:35:00.197Z,94.60
2022-10-05T03:37:33.874Z,94.50
2022-10-05T03:40:00.514Z,94.60
2022-10-05T03:42:29.957Z,94.70
2022-10-05T03:45:00.721Z,94.50
2022-10-05T03:47:30.285Z,94.60
2022-10-05T03:49:56.956Z,94.70
2022-10-05T03:52:28.374Z,94.40
2022-10-05T03:55:01.536Z,94.60
2022-10-05T03:57:29.290Z,94.40
2022-10-05T04:00:01.070Z,94.50
2022-10-05T04:02:36.140Z,94.50
2022-10-05T04:05:14.043Z,94.70
2022-10-05T04:07:43.858Z,94.70
2022-10-05T04:10:15.610Z,94.70
2022-10-05T04:12:45.607Z,94.50
2022-10-05T04:15:19.791Z,94.70
2022-10-05T04:17:48.952Z,94.80
2022-10-05T04:20:43.098Z,94.80
2022-10-05T04:23:09.829Z,94.60
2022-10-05T04:25:42.473Z,94.60
2022-10-05T04:28:31.789Z,94.60
2022-10-05T04:31:00.505Z,94.60
2022-10-05T04:33:27.621Z,94.50
2022-10-05T04:35:54.287Z,94.50
2022-10-05T04:38:34.665Z,94.40
2022-10-05T04:41:20.035Z,94.80
2022-10-05T04:43:49.855Z,94.70
2022-10-05T04:46:22.728Z,94.40
2022-10-05T04:48:55.276Z,94.60
2022-10-05T04:51:40.639Z,94.40
2022-10-05T04:54:26.182Z,94.50
2022-10-05T04:56:54.722Z,94.40
2022-10-05T04:59:40.338Z,94.60
2022-10-05T05:02:25.794Z,94.50
2022-10-05T05:05:11.437Z,94.50
2022-10-05T05:07:45.742Z,94.60
2022-10-05T05:10:31.161Z,94.60
2022-10-05T05:13:04.131Z,94.50
2022-10-05T05:15:35.950Z,94.50
2022-10-05T05:18:10.585Z,94.50
2022-10-05T05:20:37.296Z,94.50
2022-10-05T05:23:18.693Z,94.60
2022-10-05T05:25:54.296Z,94.50
2022-10-05T05:28:41.329Z,94.50
2022-10-05T05:31:14.946Z,94.50
2022-10-05T05:33:58.471Z,94.40
2022-10-05T05:36:33.960Z,94.30
2022-10-05T05:39:00.642Z,94.40
2022-10-05T05:41:34.293Z,94.30
2022-10-05T05:44:09.893Z,94.50
2022-10-05T05:47:02.297Z,94.30
2022-10-05T05:49:32.718Z,94.50
2022-10-05T05:52:19.716Z,94.30
2022-10-05T05:54:49.465Z,94.30
2022-10-05T05:57:28.394Z,94.50
2022-10-05T06:00:00.860Z,94.40
2022-10-05T06:02:31.941Z,94.40
2022-10-05T06:05:02.731Z,94.40
2022-10-05T06:07:31.408Z,94.60
2022-10-05T06:10:01.731Z,94.30
2022-10-05T06:12:32.188Z,94.30
2022-10-05T06:15:05.159Z,94.50
2022-10-05T06:17:41.544Z,94.50
2022-10-05T06:20:34.665Z,94.40
2022-10-05T06:23:03.391Z,94.60
2022-10-05T06:25:48.420Z,94.60
2022-10-05T06:28:18.688Z,94.60
2022-10-05T06:30:54.382Z,94.70
2022-10-05T06:33:34.150Z,94.60
2022-10-05T06:36:00.886Z,94.60
2022-10-05T06:38:45.848Z,94.40
2022-10-05T06:41:19.193Z,94.70
2022-10-05T06:44:04.689Z,94.70
2022-10-05T06:46:32.643Z,94.60
2022-10-05T06:49:14.687Z,94.50
2022-10-05T06:51:53.285Z,94.50
2022-10-05T06:54:31.931Z,94.40
2022-10-05T06:57:09.958Z,94.60
2022-10-05T06:59:41.587Z,94.50
2022-10-05T07:02:17.269Z,94.50
2022-10-05T07:04:49.869Z,94.60
2022-10-05T07:07:23.651Z,94.60
2022-10-05T07:09:50.377Z,94.60
2022-10-05T07:12:41.390Z,94.70
2022-10-05T07:15:08.379Z,94.60
2022-10-05T07:17:49.674Z,94.60
2022-10-05T07:20:30.180Z,94.70
2022-10-05T07:22:56.857Z,94.60
2022-10-05T07:25:28.109Z,94.80
2022-10-05T07:28:00.891Z,94.80
2022-10-05T07:30:28.641Z,94.70
2022-10-05T07:33:17.976Z,94.80
2022-10-05T07:36:05.845Z,94.70
2022-10-05T07:38:45.962Z,94.70
2022-10-05T07:41:35.845Z,94.70
2022-10-05T07:44:15.180Z,94.60
2022-10-05T07:46:42.566Z,94.80
2022-10-05T07:49:29.505Z,94.60
2022-10-05T07:51:58.990Z,94.50
2022-10-05T07:54:30.319Z,94.80
2022-10-05T07:56:57.046Z,94.90
2022-10-05T07:59:36.142Z,94.80
2022-10-05T08:02:07.576Z,94.90
2022-10-05T08:04:47.465Z,95.30
2022-10-05T08:07:17.078Z,94.70
2022-10-05T08:10:02.703Z,94.70
2022-10-05T08:12:30.873Z,94.60
2022-10-05T08:15:12.127Z,94.80
2022-10-05T08:17:53.714Z,94.90
2022-10-05T08:20:40.520Z,94.70
2022-10-05T08:23:19.398Z,95.20
2022-10-05T08:25:54.196Z,95.00
2022-10-05T08:28:23.637Z,94.70
2022-10-05T08:31:09.353Z,94.90
2022-10-05T08:33:41.517Z,94.70
2022-10-05T08:36:11.655Z,94.70
2022-10-05T08:38:38.699Z,95.00
2022-10-05T08:41:23.969Z,94.60
2022-10-05T08:43:50.656Z,94.80
2022-10-05T08:46:32.738Z,94.90
2022-10-05T08:49:35.445Z,94.80
2022-10-05T08:52:14.497Z,94.80
2022-10-05T08:54:46.938Z,94.80
2022-10-05T08:57:36.738Z,95.00
2022-10-05T09:00:18.743Z,94.60
2022-10-05T09:03:06.379Z,94.90
2022-10-05T09:05:38.647Z,94.80
2022-10-05T09:08:40.815Z,94.70
2022-10-05T09:11:07.511Z,94.70
2022-10-05T09:13:40.710Z,94.70
2022-10-05T09:16:36.820Z,94.60
2022-10-05T09:19:22.927Z,94.60
2022-10-05T09:22:01.545Z,94.70
2022-10-05T09:24:28.380Z,94.70
2022-10-05T09:26:57.596Z,94.60
2022-10-05T09:29:27.209Z,94.70
2022-10-05T09:32:16.324Z,94.60
2022-10-05T09:34:58.350Z,94.60
2022-10-05T09:37:26.128Z,94.60
2022-10-05T09:40:00.475Z,94.60
2022-10-05T09:42:28.117Z,94.60
2022-10-05T09:45:18.976Z,94.50
2022-10-05T09:48:14.189Z,94.50
2022-10-05T09:50:59.275Z,94.60
2022-10-05T09:53:45.003Z,94.50
2022-10-05T09:59:10.357Z,94.50
2022-10-05T10:01:43.198Z,94.70
2022-10-05T10:04:35.996Z,94.70
2022-10-05T10:07:08.720Z,94.80
2022-10-05T10:09:52.057Z,94.60
2022-10-05T10:12:21.769Z,94.60
2022-10-05T10:14:51.478Z,94.80
2022-10-05T10:17:18.224Z,94.70
2022-10-05T10:20:00.381Z,94.60
2022-10-05T10:22:45.513Z,95.00
2022-10-05T10:25:19.292Z,94.20
2022-10-05T10:28:03.771Z,94.50
2022-10-05T10:30:39.803Z,94.70
2022-10-05T10:33:11.923Z,94.70
2022-10-05T10:35:44.500Z,94.60
2022-10-05T10:38:33.252Z,94.50
2022-10-05T10:41:12.031Z,94.80
2022-10-05T10:43:57.454Z,94.30
2022-10-05T10:46:30.305Z,94.60
2022-10-05T10:49:07.020Z,94.50
2022-10-05T10:51:39.610Z,94.60
2022-10-05T10:54:29.321Z,94.80
2022-10-05T10:57:08.773Z,94.50
2022-10-05T10:59:54.379Z,94.60
2022-10-05T11:02:40.081Z,94.40
2022-10-05T11:05:25.193Z,94.70
2022-10-05T11:08:18.405Z,94.80
2022-10-05T11:11:03.548Z,94.80
2022-10-05T11:13:48.773Z,94.40
2022-10-05T11:16:34.051Z,94.50
2022-10-05T11:19:12.846Z,94.70
2022-10-05T11:21:42.325Z,94.40
2022-10-05T11:24:15.146Z,94.70
2022-10-05T11:27:03.260Z,94.70
2022-10-05T11:29:49.360Z,94.60
2022-10-05T11:32:18.869Z,94.30
2022-10-05T11:35:04.297Z,94.90
2022-10-05T11:37:58.837Z,94.40
2022-10-05T11:40:28.633Z,94.60
2022-10-05T11:43:13.628Z,94.90
2022-10-05T11:45:59.180Z,94.40
2022-10-05T11:48:28.731Z,94.60
2022-10-05T11:51:07.685Z,94.70
2022-10-05T11:53:46.697Z,94.80
2022-10-05T11:56:16.595Z,94.50
2022-10-05T11:58:43.338Z,94.30
2022-10-05T12:01:18.173Z,94.50
2022-10-05T12:03:57.774Z,94.40
2022-10-05T12:06:29.807Z,94.70
2022-10-05T12:08:59.484Z,94.30
2022-10-05T12:11:57.963Z,94.20
2022-10-05T12:14:33.500Z,94.50
2022-10-05T12:17:03.105Z,94.40
2022-10-05T12:19:34.041Z,94.50
2022-10-05T12:22:15.555Z,94.40
2022-10-05T12:24:45.151Z,94.40
2022-10-05T12:27:15.877Z,94.60
2022-10-05T12:29:42.587Z,94.40
2022-10-05T12:32:29.580Z,94.20
2022-10-05T12:35:01.897Z,94.20
2022-10-05T12:37:47.820Z,94.60
2022-10-05T12:40:23.739Z,94.60
2022-10-05T12:42:56.473Z,94.40
2022-10-05T12:45:43.981Z,94.30
2022-10-05T12:48:25.995Z,94.50
2022-10-05T12:50:59.933Z,94.60
2022-10-05T12:53:28.857Z,94.70
2022-10-05T12:56:09.932Z,94.80
2022-10-05T12:58:36.891Z,94.60
2022-10-05T13:01:03.591Z,94.20
2022-10-05T13:03:33.470Z,94.70
2022-10-05T13:06:05.208Z,94.40
2022-10-05T13:08:50.824Z,94.70
2022-10-05T13:11:21.338Z,94.60
2022-10-05T13:13:52.997Z,94.70
2022-10-05T13:16:19.709Z,94.70
2022-10-05T13:19:05.387Z,94.90
2022-10-05T13:21:52.124Z,94.60
2022-10-05T13:24:26.791Z,94.70
2022-10-05T13:26:55.222Z,94.60
2022-10-05T13:29:37.324Z,94.80
2022-10-05T13:32:07.380Z,94.80
2022-10-05T13:34:38.075Z,94.70
2022-10-05T13:37:15.398Z,94.70
2022-10-05T13:39:58.638Z,94.40
2022-10-05T13:42:31.206Z,94.80
2022-10-05T13:45:00.564Z,94.50
2022-10-05T13:47:34.202Z,94.80
2022-10-05T13:50:13.668Z,94.70
2022-10-05T13:52:48.548Z,94.70
2022-10-05T13:55:28.217Z,94.70
2022-10-05T13:58:21.120Z,94.80
2022-10-05T14:00:53.211Z,94.60
2022-10-05T14:03:34.964Z,94.60
2022-10-05T14:06:12.861Z,94.50
2022-10-05T14:08:52.323Z,94.40
2022-10-05T14:11:22.172Z,94.80
2022-10-05T14:13:49.067Z,94.80
2022-10-05T14:16:23.327Z,94.70
2022-10-05T14:18:57.973Z,94.60
2022-10-05T14:21:26.181Z,94.90
2022-10-05T14:23:53.362Z,94.80
2022-10-05T14:26:31.274Z,94.60
2022-10-05T14:28:59.526Z,94.80
2022-10-05T14:31:36.619Z,94.40
2022-10-05T14:34:23.308Z,94.70
2022-10-05T14:36:55.359Z,94.40
2022-10-05T14:39:25.600Z,94.50
2022-10-05T14:41:52.350Z,94.30
2022-10-05T14:44:19.151Z,94.60
2022-10-05T14:46:53.275Z,94.90
2022-10-05T14:49:22.827Z,94.70
2022-10-05T14:51:53.472Z,94.80
2022-10-05T14:54:27.540Z,94.60
2022-10-05T14:57:06.248Z,94.50
2022-10-05T14:59:55.050Z,94.50
2022-10-05T15:02:36.346Z,94.80
2022-10-05T15:05:31.559Z,94.80
2022-10-05T15:08:04.894Z,94.60
2022-10-05T15:10:42.254Z,94.60
2022-10-05T15:13:17.882Z,94.60
2022-10-05T15:15:44.606Z,94.50
2022-10-05T15:18:32.186Z,94.80
2022-10-05T15:21:10.921Z,94.60
2022-10-05T15:23:42.802Z,94.60
2022-10-05T15:26:23.947Z,94.80
2022-10-05T15:29:01.880Z,94.70
2022-10-05T15:31:39.810Z,94.80
2022-10-05T15:34:11.855Z,94.70
2022-10-05T15:36:44.471Z,94.80
2022-10-05T15:39:17.123Z,94.40
2022-10-05T15:41:50.130Z,95.10
2022-10-05T15:44:22.823Z,94.70
2022-10-05T15:46:56.502Z,94.70
2022-10-05T15:49:26.390Z,95.10
2022-10-05T15:52:05.316Z,94.60
2022-10-05T15:54:51.083Z,94.80
2022-10-05T15:57:23.897Z,94.90
2022-10-05T15:59:56.423Z,94.80
2022-10-05T16:02:29.996Z,94.90
2022-10-05T16:05:07.497Z,95.00
2022-10-05T16:07:59.689Z,94.60
2022-10-05T16:10:26.430Z,94.70
2022-10-05T16:12:56.105Z,95.00
2022-10-05T16:15:36.230Z,94.70
2022-10-05T16:18:02.893Z,95.10
2022-10-05T16:20:35.813Z,94.80
2022-10-05T16:23:13.642Z,94.90
2022-10-05T16:25:52.548Z,94.90
2022-10-05T16:28:19.280Z,94.70
2022-10-05T16:30:48.913Z,94.70
2022-10-05T16:33:15.761Z,94.90
2022-10-05T16:36:00.142Z,94.70
2022-10-05T16:38:41.623Z,94.90
2022-10-05T16:41:17.597Z,95.00
2022-10-05T16:43:49.382Z,95.00
2022-10-05T16:46:51.664Z,94.80
2022-10-05T16:49:30.212Z,94.90
2022-10-05T16:51:59.122Z,95.00
2022-10-05T16:54:25.791Z,95.00
2022-10-05T16:57:03.735Z,95.00
2022-10-05T16:59:44.692Z,95.00
2022-10-05T17:02:29.436Z,94.80
2022-10-05T17:05:04.855Z,94.90
2022-10-05T17:07:43.778Z,95.00
2022-10-05T17:10:22.384Z,94.90
2022-10-05T17:13:07.878Z,95.00
2022-10-05T17:15:34.702Z,95.00
2022-10-05T17:18:04.317Z,94.90
2022-10-05T17:20:47.709Z,95.20
2022-10-05T17:23:23.516Z,94.90
2022-10-05T17:25:54.824Z,95.00
2022-10-05T17:28:41.816Z,94.90
2022-10-05T17:31:08.718Z,95.10
2022-10-05T17:33:55.475Z,95.00
2022-10-05T17:36:22.220Z,95.00
2022-10-05T17:39:08.963Z,94.80
2022-10-05T17:41:38.759Z,95.00
2022-10-05T17:44:16.204Z,95.00
2022-10-05T17:46:46.702Z,95.00
2022-10-05T17:49:19.439Z,95.10
2022-10-05T17:52:04.944Z,95.20
2022-10-05T17:55:10.275Z,94.80
2022-10-05T17:57:37.698Z,95.00
2022-10-05T18:00:06.142Z,95.10
2022-10-05T18:02:36.724Z,94.90
2022-10-05T18:05:06.777Z,94.90
2022-10-05T18:07:37.338Z,95.20
2022-10-05T18:10:04.471Z,95.10
2022-10-05T18:12:37.239Z,95.00
2022-10-05T18:15:06.982Z,94.90
2022-10-05T18:17:36.839Z,95.00
2022-10-05T18:20:21.313Z,95.00
2022-10-05T18:22:50.967Z,94.90
2022-10-05T18:25:30.008Z,95.00
2022-10-05T18:28:06.183Z,94.80
2022-10-05T18:30:58.634Z,95.00
2022-10-05T18:33:51.565Z,94.90
2022-10-05T18:36:37.752Z,94.90
2022-10-05T18:39:23.611Z,94.90
2022-10-05T18:42:08.841Z,94.90
2022-10-05T18:44:39.466Z,95.00
2022-10-05T18:47:06.442Z,95.10
2022-10-05T18:49:48.684Z,95.00
2022-10-05T18:52:17.925Z,95.00
2022-10-05T18:55:03.165Z,95.00
2022-10-05T18:57:29.904Z,95.00
2022-10-05T19:00:02.126Z,95.10
2022-10-05T19:02:36.197Z,95.10
2022-10-05T19:05:51.627Z,95.00
2022-10-05T19:08:11.624Z,95.20
2022-10-05T19:10:50.776Z,95.10
2022-10-05T19:13:37.691Z,95.00
2022-10-05T19:16:17.059Z,95.10
2022-10-05T19:18:50.393Z,95.10
2022-10-05T19:21:17.190Z,95.20
2022-10-05T19:23:56.415Z,95.10
2022-10-05T19:26:23.088Z,95.20
2022-10-05T19:28:57.593Z,95.30
2022-10-05T19:31:30.150Z,95.00
2022-10-05T19:34:09.249Z,95.40
2022-10-05T19:36:59.481Z,94.90
2022-10-05T19:39:29.293Z,95.00
2022-10-05T19:42:14.560Z,95.20
2022-10-05T19:44:56.907Z,95.20
2022-10-05T19:47:26.754Z,95.10
2022-10-05T19:49:55.323Z,95.00
2022-10-05T19:52:36.600Z,95.20
2022-10-05T19:55:35.569Z,95.10
2022-10-05T19:58:16.259Z,95.00
2022-10-05T20:00:45.800Z,95.10
2022-10-05T20:03:27.444Z,95.10
2022-10-05T20:05:55.124Z,95.30
2022-10-05T20:08:22.985Z,95.30
2022-10-05T20:11:10.051Z,95.20
2022-10-05T20:13:37.433Z,95.00
2022-10-05T20:16:28.772Z,95.20
2022-10-05T20:19:14.242Z,95.10
2022-10-05T20:21:41.102Z,95.30
2022-10-05T20:24:07.820Z,95.00
2022-10-05T20:27:05.265Z,95.00
2022-10-05T20:29:36.477Z,95.00
2022-10-05T20:32:08.851Z,95.10
2022-10-05T20:34:36.283Z,95.10
2022-10-05T20:37:03.494Z,95.40
2022-10-05T20:39:31.477Z,95.20
2022-10-05T20:41:58.671Z,95.30
2022-10-05T20:44:25.813Z,95.40
2022-10-05T20:46:55.297Z,95.30
2022-10-05T20:49:23.710Z,95.20
2022-10-05T20:51:50.411Z,95.30
2022-10-05T20:54:19.192Z,95.40
2022-10-05T20:56:46.184Z,95.10
2022-10-05T20:59:13.526Z,95.30
2022-10-05T21:01:41.353Z,95.20
2022-10-05T21:04:08.588Z,95.00
2022-10-05T21:06:35.303Z,95.30
2022-10-05T21:09:02.200Z,95.40
2022-10-05T21:11:28.915Z,95.20
2022-10-05T21:13:56.142Z,95.10
2022-10-05T21:16:24.876Z,95.40
2022-10-05T21:18:51.630Z,95.40
2022-10-05T21:21:18.490Z,95.10
2022-10-05T21:23:45.967Z,95.40
2022-10-05T21:26:12.925Z,95.20
2022-10-05T21:28:40.271Z,95.40
2022-10-05T21:31:07.789Z,95.30
2022-10-05T21:33:34.657Z,95.40
2022-10-05T21:36:01.641Z,95.50
2022-10-05T21:38:29.253Z,95.50
2022-10-05T21:40:56.426Z,95.30
2022-10-05T21:43:23.845Z,95.60
2022-10-05T21:45:50.700Z,95.50
2022-10-05T21:48:17.602Z,95.40
2022-10-05T21:50:44.880Z,95.10
2022-10-05T21:53:13.138Z,95.40
2022-10-05T21:55:41.437Z,95.40
2022-10-05T21:58:08.456Z,95.40
2022-10-05T22:00:35.308Z,95.40
2022-10-05T22:03:02.008Z,95.40
2022-10-05T22:05:28.820Z,95.30
2022-10-05T22:07:55.738Z,95.00
2022-10-05T22:10:22.417Z,95.40
2022-10-05T22:12:49.106Z,95.30
2022-10-05T22:15:16.258Z,95.30
2022-10-05T22:17:43.096Z,95.40
2022-10-05T22:20:11.182Z,95.20
2022-10-05T22:22:37.906Z,95.40
2022-10-05T22:25:04.813Z,95.30
2022-10-05T22:27:32.025Z,95.00
2022-10-05T22:29:58.970Z,95.30
2022-10-05T22:32:25.683Z,95.30
2022-10-05T22:34:52.360Z,95.40
2022-10-05T22:37:19.189Z,95.20
2022-10-05T22:39:45.880Z,95.40
2022-10-05T22:42:12.610Z,95.30
2022-10-05T22:44:39.805Z,95.20
2022-10-05T22:47:06.501Z,95.30
2022-10-05T22:49:33.184Z,95.50
2022-10-05T22:51:59.928Z,95.30
2022-10-05T22:54:29.720Z,95.40
2022-10-05T22:56:57.793Z,95.50
2022-10-05T22:59:24.540Z,95.40
2022-10-05T23:01:51.431Z,95.30
2022-10-05T23:04:18.275Z,95.40
2022-10-05T23:06:45.018Z,95.40
2022-10-05T23:09:11.720Z,95.70
2022-10-05T23:11:38.445Z,95.40
2022-10-05T23:14:05.259Z,95.40
2022-10-05T23:16:32.040Z,95.40
2022-10-05T23:18:59.260Z,95.60
2022-10-05T23:21:27.969Z,95.40
2022-10-05T23:23:54.724Z,95.10
2022-10-05T23:26:23.040Z,95.50
2022-10-05T23:28:50.313Z,95.50
2022-10-05T23:31:24.949Z,95.50
2022-10-05T23:33:52.298Z,95.30
2022-10-05T23:36:20.782Z,95.30
2022-10-05T23:38:47.923Z,95.40
2022-10-05T23:41:16.084Z,95.50
2022-10-05T23:43:43.083Z,95.30
2022-10-05T23:46:10.103Z,95.20
2022-10-05T23:48:40.052Z,95.30
2022-10-05T23:51:07.620Z,95.50
2022-10-05T23:53:34.355Z,95.30
2022-10-05T23:56:01.284Z,95.50
2022-10-05T23:58:28.260Z,95.30
